sensor_id;sensor_type;location;lat;lon;timestamp;temperature;humidity
1135;DHT22;556;53.550;10.048;2022-07-05T00:00:03;20.10;42.70
1135;DHT22;556;53.550;10.048;2022-07-05T00:02:39;20.10;42.40
1135;DHT22;556;53.550;10.048;2022-07-05T00:05:06;20.00;42.40
1135;DHT22;556;53.550;10.048;2022-07-05T00:07:33;20.00;42.80
1135;DHT22;556;53.550;10.048;2022-07-05T00:10:01;20.00;42.80
1135;DHT22;556;53.550;10.048;2022-07-05T00:12:30;20.00;42.90
1135;DHT22;556;53.550;10.048;2022-07-05T00:14:59;20.00;42.50
1135;DHT22;556;53.550;10.048;2022-07-05T00:17:27;19.90;42.40
1135;DHT22;556;53.550;10.048;2022-07-05T00:19:54;20.00;43.00
1135;DHT22;556;53.550;10.048;2022-07-05T00:22:22;19.90;42.90
1135;DHT22;556;53.550;10.048;2022-07-05T00:24:49;19.70;43.20
1135;DHT22;556;53.550;10.048;2022-07-05T00:27:17;19.90;43.10
1135;DHT22;556;53.550;10.048;2022-07-05T00:29:44;19.80;43.10
1135;DHT22;556;53.550;10.048;2022-07-05T00:32:12;19.80;43.20
1135;DHT22;556;53.550;10.048;2022-07-05T00:34:39;19.80;43.30
1135;DHT22;556;53.550;10.048;2022-07-05T00:37:06;19.70;43.30
1135;DHT22;556;53.550;10.048;2022-07-05T00:39:33;19.70;42.90
1135;DHT22;556;53.550;10.048;2022-07-05T00:42:01;19.70;43.00
1135;DHT22;556;53.550;10.048;2022-07-05T00:44:29;19.60;43.10
1135;DHT22;556;53.550;10.048;2022-07-05T00:46:58;19.50;43.10
1135;DHT22;556;53.550;10.048;2022-07-05T00:49:26;19.50;43.20
1135;DHT22;556;53.550;10.048;2022-07-05T00:51:53;19.50;43.60
1135;DHT22;556;53.550;10.048;2022-07-05T00:54:21;19.40;43.20
1135;DHT22;556;53.550;10.048;2022-07-05T00:56:48;19.40;43.40
1135;DHT22;556;53.550;10.048;2022-07-05T00:59:15;19.30;43.40
1135;DHT22;556;53.550;10.048;2022-07-05T01:01:42;19.30;43.50
1135;DHT22;556;53.550;10.048;2022-07-05T01:04:10;19.30;43.90
1135;DHT22;556;53.550;10.048;2022-07-05T01:06:40;19.30;43.60
1135;DHT22;556;53.550;10.048;2022-07-05T01:09:13;19.30;43.70
1135;DHT22;556;53.550;10.048;2022-07-05T01:11:43;19.20;44.20
1135;DHT22;556;53.550;10.048;2022-07-05T01:14:11;19.20;44.40
1135;DHT22;556;53.550;10.048;2022-07-05T01:16:39;19.10;44.40
1135;DHT22;556;53.550;10.048;2022-07-05T01:19:07;19.10;44.00
1135;DHT22;556;53.550;10.048;2022-07-05T01:21:39;19.00;44.00
1135;DHT22;556;53.550;10.048;2022-07-05T01:24:08;19.00;44.50
1135;DHT22;556;53.550;10.048;2022-07-05T01:26:36;18.90;44.10
1135;DHT22;556;53.550;10.048;2022-07-05T01:29:04;18.90;44.30
1135;DHT22;556;53.550;10.048;2022-07-05T01:31:32;18.90;44.40
1135;DHT22;556;53.550;10.048;2022-07-05T01:33:59;18.80;44.60
1135;DHT22;556;53.550;10.048;2022-07-05T01:36:26;18.80;45.10
1135;DHT22;556;53.550;10.048;2022-07-05T01:38:53;18.80;45.20
1135;DHT22;556;53.550;10.048;2022-07-05T01:43:49;18.70;44.70
1135;DHT22;556;53.550;10.048;2022-07-05T01:46:17;18.70;44.90
1135;DHT22;556;53.550;10.048;2022-07-05T01:48:46;18.70;45.40
1135;DHT22;556;53.550;10.048;2022-07-05T01:51:18;18.70;46.00
1135;DHT22;556;53.550;10.048;2022-07-05T01:53:50;18.60;45.40
1135;DHT22;556;53.550;10.048;2022-07-05T01:56:18;18.90;45.70
1135;DHT22;556;53.550;10.048;2022-07-05T01:58:47;18.60;45.10
1135;DHT22;556;53.550;10.048;2022-07-05T02:01:15;18.60;45.70
1135;DHT22;556;53.550;10.048;2022-07-05T02:03:44;18.60;45.40
1135;DHT22;556;53.550;10.048;2022-07-05T02:06:11;18.50;45.80
1135;DHT22;556;53.550;10.048;2022-07-05T02:08:39;18.50;46.00
1135;DHT22;556;53.550;10.048;2022-07-05T02:11:09;18.50;46.00
1135;DHT22;556;53.550;10.048;2022-07-05T02:13:38;18.50;46.10
1135;DHT22;556;53.550;10.048;2022-07-05T02:16:07;18.40;46.00
1135;DHT22;556;53.550;10.048;2022-07-05T02:18:34;18.40;46.00
1135;DHT22;556;53.550;10.048;2022-07-05T02:21:01;18.40;46.00
1135;DHT22;556;53.550;10.048;2022-07-05T02:23:29;18.40;46.10
1135;DHT22;556;53.550;10.048;2022-07-05T02:25:56;18.40;46.20
1135;DHT22;556;53.550;10.048;2022-07-05T02:28:24;18.40;46.20
1135;DHT22;556;53.550;10.048;2022-07-05T02:30:52;18.40;46.30
1135;DHT22;556;53.550;10.048;2022-07-05T02:33:21;18.40;46.30
1135;DHT22;556;53.550;10.048;2022-07-05T02:35:49;18.30;46.30
1135;DHT22;556;53.550;10.048;2022-07-05T02:38:17;18.30;46.40
1135;DHT22;556;53.550;10.048;2022-07-05T02:40:44;18.30;46.40
1135;DHT22;556;53.550;10.048;2022-07-05T02:43:14;18.30;46.10
1135;DHT22;556;53.550;10.048;2022-07-05T02:45:41;18.30;46.10
1135;DHT22;556;53.550;10.048;2022-07-05T02:48:09;18.20;46.00
1135;DHT22;556;53.550;10.048;2022-07-05T02:50:38;18.20;46.20
1135;DHT22;556;53.550;10.048;2022-07-05T02:53:07;18.10;46.10
1135;DHT22;556;53.550;10.048;2022-07-05T02:55:34;18.10;46.20
1135;DHT22;556;53.550;10.048;2022-07-05T02:58:02;18.10;46.70
1135;DHT22;556;53.550;10.048;2022-07-05T03:00:31;18.00;46.30
1135;DHT22;556;53.550;10.048;2022-07-05T03:02:59;18.10;46.40
1135;DHT22;556;53.550;10.048;2022-07-05T03:05:28;18.00;46.80
1135;DHT22;556;53.550;10.048;2022-07-05T03:08:02;18.00;46.40
1135;DHT22;556;53.550;10.048;2022-07-05T03:10:31;18.00;46.50
1135;DHT22;556;53.550;10.048;2022-07-05T03:13:01;18.00;46.60
1135;DHT22;556;53.550;10.048;2022-07-05T03:15:29;17.90;46.50
1135;DHT22;556;53.550;10.048;2022-07-05T03:17:57;18.00;46.70
1135;DHT22;556;53.550;10.048;2022-07-05T03:20:26;18.00;46.60
1135;DHT22;556;53.550;10.048;2022-07-05T03:22:53;18.00;46.60
1135;DHT22;556;53.550;10.048;2022-07-05T03:25:26;18.00;47.10
1135;DHT22;556;53.550;10.048;2022-07-05T03:27:54;18.10;46.70
1135;DHT22;556;53.550;10.048;2022-07-05T03:30:21;18.10;47.10
1135;DHT22;556;53.550;10.048;2022-07-05T03:32:49;18.10;46.60
1135;DHT22;556;53.550;10.048;2022-07-05T03:35:17;18.10;46.70
1135;DHT22;556;53.550;10.048;2022-07-05T03:37:47;18.10;47.20
1135;DHT22;556;53.550;10.048;2022-07-05T03:40:14;18.10;46.80
1135;DHT22;556;53.550;10.048;2022-07-05T03:42:43;18.10;46.80
1135;DHT22;556;53.550;10.048;2022-07-05T03:45:10;18.20;46.90
1135;DHT22;556;53.550;10.048;2022-07-05T03:47:39;18.20;46.90
1135;DHT22;556;53.550;10.048;2022-07-05T03:50:09;18.10;46.80
1135;DHT22;556;53.550;10.048;2022-07-05T03:52:37;18.20;46.90
1135;DHT22;556;53.550;10.048;2022-07-05T03:55:04;18.20;46.90
1135;DHT22;556;53.550;10.048;2022-07-05T03:57:33;18.20;46.90
1135;DHT22;556;53.550;10.048;2022-07-05T04:00:02;18.30;47.00
1135;DHT22;556;53.550;10.048;2022-07-05T04:02:39;18.30;47.00
1135;DHT22;556;53.550;10.048;2022-07-05T04:05:09;18.30;47.00
1135;DHT22;556;53.550;10.048;2022-07-05T04:07:47;18.30;47.00
1135;DHT22;556;53.550;10.048;2022-07-05T04:10:18;18.30;46.90
1135;DHT22;556;53.550;10.048;2022-07-05T04:12:46;18.30;46.90
1135;DHT22;556;53.550;10.048;2022-07-05T04:15:15;18.40;47.00
1135;DHT22;556;53.550;10.048;2022-07-05T04:17:47;18.40;46.90
1135;DHT22;556;53.550;10.048;2022-07-05T04:20:14;18.40;46.80
1135;DHT22;556;53.550;10.048;2022-07-05T04:22:43;18.40;46.90
1135;DHT22;556;53.550;10.048;2022-07-05T04:25:12;18.50;47.50
1135;DHT22;556;53.550;10.048;2022-07-05T04:27:51;18.50;46.90
1135;DHT22;556;53.550;10.048;2022-07-05T04:30:21;18.50;47.40
1135;DHT22;556;53.550;10.048;2022-07-05T04:32:49;18.50;46.90
1135;DHT22;556;53.550;10.048;2022-07-05T04:35:16;18.50;46.90
1135;DHT22;556;53.550;10.048;2022-07-05T04:37:45;18.60;47.00
1135;DHT22;556;53.550;10.048;2022-07-05T04:40:14;18.60;47.00
1135;DHT22;556;53.550;10.048;2022-07-05T04:42:42;18.60;47.00
1135;DHT22;556;53.550;10.048;2022-07-05T04:45:11;18.70;47.00
1135;DHT22;556;53.550;10.048;2022-07-05T04:47:40;18.70;47.40
1135;DHT22;556;53.550;10.048;2022-07-05T04:50:08;18.80;46.90
1135;DHT22;556;53.550;10.048;2022-07-05T04:55:04;18.90;46.90
1135;DHT22;556;53.550;10.048;2022-07-05T04:57:36;18.90;46.90
1135;DHT22;556;53.550;10.048;2022-07-05T05:00:04;18.90;46.90
1135;DHT22;556;53.550;10.048;2022-07-05T05:02:32;18.90;47.30
1135;DHT22;556;53.550;10.048;2022-07-05T05:05:01;18.90;47.30
1135;DHT22;556;53.550;10.048;2022-07-05T05:07:28;18.90;46.80
1135;DHT22;556;53.550;10.048;2022-07-05T05:12:23;18.90;47.00
1135;DHT22;556;53.550;10.048;2022-07-05T05:14:50;18.90;47.40
1135;DHT22;556;53.550;10.048;2022-07-05T05:17:17;18.90;47.00
1135;DHT22;556;53.550;10.048;2022-07-05T05:19:44;19.00;46.90
1135;DHT22;556;53.550;10.048;2022-07-05T05:22:12;19.00;46.80
1135;DHT22;556;53.550;10.048;2022-07-05T05:24:40;19.00;47.30
1135;DHT22;556;53.550;10.048;2022-07-05T05:27:07;19.10;46.90
1135;DHT22;556;53.550;10.048;2022-07-05T05:29:34;19.10;46.80
1135;DHT22;556;53.550;10.048;2022-07-05T05:32:01;19.20;46.70
1135;DHT22;556;53.550;10.048;2022-07-05T05:34:28;19.20;47.20
1135;DHT22;556;53.550;10.048;2022-07-05T05:36:55;19.30;46.50
1135;DHT22;556;53.550;10.048;2022-07-05T05:39:23;19.50;46.60
1135;DHT22;556;53.550;10.048;2022-07-05T05:41:50;19.50;46.30
1135;DHT22;556;53.550;10.048;2022-07-05T05:44:17;19.50;46.30
1135;DHT22;556;53.550;10.048;2022-07-05T05:46:45;19.50;46.30
1135;DHT22;556;53.550;10.048;2022-07-05T05:49:12;19.50;46.30
1135;DHT22;556;53.550;10.048;2022-07-05T05:51:39;19.60;46.30
1135;DHT22;556;53.550;10.048;2022-07-05T05:54:06;19.60;46.70
1135;DHT22;556;53.550;10.048;2022-07-05T05:56:34;19.70;46.60
1135;DHT22;556;53.550;10.048;2022-07-05T05:59:04;19.70;46.60
1135;DHT22;556;53.550;10.048;2022-07-05T06:01:31;19.80;46.40
1135;DHT22;556;53.550;10.048;2022-07-05T06:03:59;19.90;45.80
1135;DHT22;556;53.550;10.048;2022-07-05T06:06:26;20.00;45.80
1135;DHT22;556;53.550;10.048;2022-07-05T06:08:53;20.00;45.70
1135;DHT22;556;53.550;10.048;2022-07-05T06:11:20;20.10;45.60
1135;DHT22;556;53.550;10.048;2022-07-05T06:13:49;20.10;46.00
1135;DHT22;556;53.550;10.048;2022-07-05T06:16:16;20.30;45.60
1135;DHT22;556;53.550;10.048;2022-07-05T06:18:45;20.30;45.40
1135;DHT22;556;53.550;10.048;2022-07-05T06:21:13;20.30;45.40
1135;DHT22;556;53.550;10.048;2022-07-05T06:23:40;20.40;45.40
1135;DHT22;556;53.550;10.048;2022-07-05T06:26:08;20.50;45.30
1135;DHT22;556;53.550;10.048;2022-07-05T06:28:35;20.40;45.20
1135;DHT22;556;53.550;10.048;2022-07-05T06:31:04;20.50;45.30
1135;DHT22;556;53.550;10.048;2022-07-05T06:33:31;20.50;45.20
1135;DHT22;556;53.550;10.048;2022-07-05T06:35:59;20.50;45.20
1135;DHT22;556;53.550;10.048;2022-07-05T06:38:26;20.50;45.10
1135;DHT22;556;53.550;10.048;2022-07-05T06:40:53;20.60;45.00
1135;DHT22;556;53.550;10.048;2022-07-05T06:43:22;20.70;45.00
1135;DHT22;556;53.550;10.048;2022-07-05T06:45:56;20.80;45.50
1135;DHT22;556;53.550;10.048;2022-07-05T06:48:24;20.90;44.90
1135;DHT22;556;53.550;10.048;2022-07-05T06:50:51;21.10;45.30
1135;DHT22;556;53.550;10.048;2022-07-05T06:53:18;21.30;44.80
1135;DHT22;556;53.550;10.048;2022-07-05T06:55:45;21.30;44.70
1135;DHT22;556;53.550;10.048;2022-07-05T06:58:12;21.30;45.00
1135;DHT22;556;53.550;10.048;2022-07-05T07:00:40;21.40;44.60
1135;DHT22;556;53.550;10.048;2022-07-05T07:03:07;21.40;44.40
1135;DHT22;556;53.550;10.048;2022-07-05T07:05:35;21.50;44.40
1135;DHT22;556;53.550;10.048;2022-07-05T07:08:03;21.60;44.40
1135;DHT22;556;53.550;10.048;2022-07-05T07:10:47;21.70;44.10
1135;DHT22;556;53.550;10.048;2022-07-05T07:13:15;21.90;44.10
1135;DHT22;556;53.550;10.048;2022-07-05T07:15:43;22.00;43.90
1135;DHT22;556;53.550;10.048;2022-07-05T07:18:10;22.40;43.80
1135;DHT22;556;53.550;10.048;2022-07-05T07:20:38;22.60;43.60
1135;DHT22;556;53.550;10.048;2022-07-05T07:23:05;22.90;43.40
1135;DHT22;556;53.550;10.048;2022-07-05T07:25:32;23.10;43.30
1135;DHT22;556;53.550;10.048;2022-07-05T07:28:00;23.10;43.10
1135;DHT22;556;53.550;10.048;2022-07-05T07:30:29;23.10;42.90
1135;DHT22;556;53.550;10.048;2022-07-05T07:32:57;23.20;43.00
1135;DHT22;556;53.550;10.048;2022-07-05T07:35:25;23.20;42.80
1135;DHT22;556;53.550;10.048;2022-07-05T07:37:53;23.30;42.70
1135;DHT22;556;53.550;10.048;2022-07-05T07:40:20;23.30;42.60
1135;DHT22;556;53.550;10.048;2022-07-05T07:42:47;23.30;42.40
1135;DHT22;556;53.550;10.048;2022-07-05T07:45:14;23.50;42.30
1135;DHT22;556;53.550;10.048;2022-07-05T07:47:42;23.50;42.10
1135;DHT22;556;53.550;10.048;2022-07-05T07:50:10;23.30;42.00
1135;DHT22;556;53.550;10.048;2022-07-05T07:52:37;23.30;42.00
1135;DHT22;556;53.550;10.048;2022-07-05T07:55:06;23.10;41.90
1135;DHT22;556;53.550;10.048;2022-07-05T07:57:33;22.90;41.80
1135;DHT22;556;53.550;10.048;2022-07-05T08:00:01;22.80;41.90
1135;DHT22;556;53.550;10.048;2022-07-05T08:02:37;22.50;42.00
1135;DHT22;556;53.550;10.048;2022-07-05T08:05:05;22.50;41.90
1135;DHT22;556;53.550;10.048;2022-07-05T08:07:35;22.50;41.80
1135;DHT22;556;53.550;10.048;2022-07-05T08:10:03;22.40;41.40
1135;DHT22;556;53.550;10.048;2022-07-05T08:12:31;22.30;41.20
1135;DHT22;556;53.550;10.048;2022-07-05T08:14:59;22.30;41.00
1135;DHT22;556;53.550;10.048;2022-07-05T08:17:27;22.30;40.80
1135;DHT22;556;53.550;10.048;2022-07-05T08:19:54;22.30;40.60
1135;DHT22;556;53.550;10.048;2022-07-05T08:22:38;22.40;40.60
1135;DHT22;556;53.550;10.048;2022-07-05T08:25:06;22.60;40.40
1135;DHT22;556;53.550;10.048;2022-07-05T08:27:35;22.70;40.10
1135;DHT22;556;53.550;10.048;2022-07-05T08:30:02;22.80;39.80
1135;DHT22;556;53.550;10.048;2022-07-05T08:34:57;23.00;39.00
1135;DHT22;556;53.550;10.048;2022-07-05T08:37:24;23.10;38.80
1135;DHT22;556;53.550;10.048;2022-07-05T08:39:52;23.40;38.40
1135;DHT22;556;53.550;10.048;2022-07-05T08:42:20;23.50;37.50
1135;DHT22;556;53.550;10.048;2022-07-05T08:44:51;23.60;37.30
1135;DHT22;556;53.550;10.048;2022-07-05T08:47:19;23.70;37.00
1135;DHT22;556;53.550;10.048;2022-07-05T08:49:48;23.80;36.80
1135;DHT22;556;53.550;10.048;2022-07-05T08:52:18;23.90;36.60
1135;DHT22;556;53.550;10.048;2022-07-05T08:54:46;24.10;36.60
1135;DHT22;556;53.550;10.048;2022-07-05T08:57:14;24.20;36.30
1135;DHT22;556;53.550;10.048;2022-07-05T08:59:41;24.20;36.70
1135;DHT22;556;53.550;10.048;2022-07-05T09:02:16;24.50;35.80
1135;DHT22;556;53.550;10.048;2022-07-05T09:04:46;24.70;35.60
1135;DHT22;556;53.550;10.048;2022-07-05T09:07:19;25.00;35.30
1135;DHT22;556;53.550;10.048;2022-07-05T09:09:48;25.10;35.70
1135;DHT22;556;53.550;10.048;2022-07-05T09:12:17;25.20;34.90
1135;DHT22;556;53.550;10.048;2022-07-05T09:14:44;25.40;34.80
1135;DHT22;556;53.550;10.048;2022-07-05T09:17:13;25.40;34.70
1135;DHT22;556;53.550;10.048;2022-07-05T09:19:40;25.40;34.40
1135;DHT22;556;53.550;10.048;2022-07-05T09:22:08;25.50;35.00
1135;DHT22;556;53.550;10.048;2022-07-05T09:24:43;25.40;34.20
1135;DHT22;556;53.550;10.048;2022-07-05T09:27:11;25.40;34.20
1135;DHT22;556;53.550;10.048;2022-07-05T09:29:40;25.40;34.20
1135;DHT22;556;53.550;10.048;2022-07-05T09:32:25;25.50;34.10
1135;DHT22;556;53.550;10.048;2022-07-05T09:34:52;25.50;34.00
1135;DHT22;556;53.550;10.048;2022-07-05T09:37:19;25.60;33.90
1135;DHT22;556;53.550;10.048;2022-07-05T09:39:46;25.70;34.40
1135;DHT22;556;53.550;10.048;2022-07-05T09:42:15;25.80;33.70
1135;DHT22;556;53.550;10.048;2022-07-05T09:44:46;25.90;33.60
1135;DHT22;556;53.550;10.048;2022-07-05T09:47:14;26.00;34.10
1135;DHT22;556;53.550;10.048;2022-07-05T09:49:44;26.10;33.40
1135;DHT22;556;53.550;10.048;2022-07-05T09:52:26;26.30;33.20
1135;DHT22;556;53.550;10.048;2022-07-05T09:55:04;26.30;33.20
1135;DHT22;556;53.550;10.048;2022-07-05T09:57:33;26.20;33.60
1135;DHT22;556;53.550;10.048;2022-07-05T10:00:01;25.80;33.10
1135;DHT22;556;53.550;10.048;2022-07-05T10:02:39;25.30;33.40
1135;DHT22;556;53.550;10.048;2022-07-05T10:05:12;25.00;33.50
1135;DHT22;556;53.550;10.048;2022-07-05T10:07:42;24.80;33.50
1135;DHT22;556;53.550;10.048;2022-07-05T10:10:11;24.60;33.30
1135;DHT22;556;53.550;10.048;2022-07-05T10:12:40;24.40;33.30
1135;DHT22;556;53.550;10.048;2022-07-05T10:15:09;24.30;33.10
1135;DHT22;556;53.550;10.048;2022-07-05T10:17:40;24.30;33.00
1135;DHT22;556;53.550;10.048;2022-07-05T10:22:40;24.40;33.00
1135;DHT22;556;53.550;10.048;2022-07-05T10:25:08;24.60;33.60
1135;DHT22;556;53.550;10.048;2022-07-05T10:27:37;24.70;32.50
1135;DHT22;556;53.550;10.048;2022-07-05T10:30:05;24.90;33.10
1135;DHT22;556;53.550;10.048;2022-07-05T10:32:34;24.90;32.60
1135;DHT22;556;53.550;10.048;2022-07-05T10:35:01;25.00;32.60
1135;DHT22;556;53.550;10.048;2022-07-05T10:37:32;25.00;32.60
1135;DHT22;556;53.550;10.048;2022-07-05T10:40:03;25.10;32.40
1135;DHT22;556;53.550;10.048;2022-07-05T10:42:36;25.10;32.90
1135;DHT22;556;53.550;10.048;2022-07-05T10:48:11;25.40;32.00
1135;DHT22;556;53.550;10.048;2022-07-05T10:50:46;26.00;31.90
1135;DHT22;556;53.550;10.048;2022-07-05T10:53:16;26.00;31.70
1135;DHT22;556;53.550;10.048;2022-07-05T10:55:53;26.00;31.60
1135;DHT22;556;53.550;10.048;2022-07-05T10:58:23;25.90;31.60
1135;DHT22;556;53.550;10.048;2022-07-05T11:03:53;25.80;31.60
1135;DHT22;556;53.550;10.048;2022-07-05T11:06:25;25.80;31.60
1135;DHT22;556;53.550;10.048;2022-07-05T11:09:17;25.90;31.40
1135;DHT22;556;53.550;10.048;2022-07-05T11:12:08;25.90;31.40
1135;DHT22;556;53.550;10.048;2022-07-05T11:14:37;26.20;31.30
1135;DHT22;556;53.550;10.048;2022-07-05T11:17:18;26.20;31.20
1135;DHT22;556;53.550;10.048;2022-07-05T11:20:12;26.30;31.70
1135;DHT22;556;53.550;10.048;2022-07-05T11:22:42;26.30;31.10
1135;DHT22;556;53.550;10.048;2022-07-05T11:25:28;26.30;31.00
1135;DHT22;556;53.550;10.048;2022-07-05T11:28:08;26.30;31.20
1135;DHT22;556;53.550;10.048;2022-07-05T11:30:55;26.40;31.80
1135;DHT22;556;53.550;10.048;2022-07-05T11:33:39;26.60;31.00
1135;DHT22;556;53.550;10.048;2022-07-05T11:36:22;26.50;30.90
1135;DHT22;556;53.550;10.048;2022-07-05T11:39:22;26.40;30.80
1135;DHT22;556;53.550;10.048;2022-07-05T11:41:50;26.50;31.30
1135;DHT22;556;53.550;10.048;2022-07-05T11:44:18;26.30;31.30
1135;DHT22;556;53.550;10.048;2022-07-05T11:46:45;26.10;31.40
1135;DHT22;556;53.550;10.048;2022-07-05T11:51:53;25.70;30.90
1135;DHT22;556;53.550;10.048;2022-07-05T11:54:22;25.70;30.90
1135;DHT22;556;53.550;10.048;2022-07-05T11:56:50;25.90;30.90
1135;DHT22;556;53.550;10.048;2022-07-05T12:01:47;26.30;30.70
1135;DHT22;556;53.550;10.048;2022-07-05T12:04:21;26.30;31.20
1135;DHT22;556;53.550;10.048;2022-07-05T12:06:48;26.40;31.20
1135;DHT22;556;53.550;10.048;2022-07-05T12:09:22;26.90;30.70
1135;DHT22;556;53.550;10.048;2022-07-05T12:11:50;27.10;30.50
1135;DHT22;556;53.550;10.048;2022-07-05T12:14:36;27.20;30.40
1135;DHT22;556;53.550;10.048;2022-07-05T12:17:14;27.10;30.40
1135;DHT22;556;53.550;10.048;2022-07-05T12:19:41;27.10;30.40
1135;DHT22;556;53.550;10.048;2022-07-05T12:22:09;27.10;30.40
1135;DHT22;556;53.550;10.048;2022-07-05T12:24:36;27.00;30.20
1135;DHT22;556;53.550;10.048;2022-07-05T12:27:04;26.90;30.80
1135;DHT22;556;53.550;10.048;2022-07-05T12:29:33;26.80;30.40
1135;DHT22;556;53.550;10.048;2022-07-05T12:32:03;26.80;30.40
1135;DHT22;556;53.550;10.048;2022-07-05T12:34:34;26.80;30.90
1135;DHT22;556;53.550;10.048;2022-07-05T12:37:02;26.80;30.30
1135;DHT22;556;53.550;10.048;2022-07-05T12:39:31;27.20;30.10
1135;DHT22;556;53.550;10.048;2022-07-05T12:41:58;27.30;30.00
1135;DHT22;556;53.550;10.048;2022-07-05T12:44:25;27.50;30.00
1135;DHT22;556;53.550;10.048;2022-07-05T12:47:04;27.70;30.30
1135;DHT22;556;53.550;10.048;2022-07-05T12:49:31;28.50;30.00
1135;DHT22;556;53.550;10.048;2022-07-05T12:52:18;29.20;29.40
1135;DHT22;556;53.550;10.048;2022-07-05T12:55:09;29.40;29.20
1135;DHT22;556;53.550;10.048;2022-07-05T12:57:56;29.30;29.10
1135;DHT22;556;53.550;10.048;2022-07-05T13:00:29;29.00;29.10
1135;DHT22;556;53.550;10.048;2022-07-05T13:02:57;28.90;29.10
1135;DHT22;556;53.550;10.048;2022-07-05T13:05:25;29.00;29.10
1135;DHT22;556;53.550;10.048;2022-07-05T13:07:53;29.30;29.00
1135;DHT22;556;53.550;10.048;2022-07-05T13:10:21;29.50;29.00
1135;DHT22;556;53.550;10.048;2022-07-05T13:12:49;29.60;28.90
1135;DHT22;556;53.550;10.048;2022-07-05T13:15:17;29.60;28.80
1135;DHT22;556;53.550;10.048;2022-07-05T13:17:46;29.70;29.30
1135;DHT22;556;53.550;10.048;2022-07-05T13:20:15;30.10;28.80
1135;DHT22;556;53.550;10.048;2022-07-05T13:22:43;30.00;28.60
1135;DHT22;556;53.550;10.048;2022-07-05T13:25:11;29.50;28.80
1135;DHT22;556;53.550;10.048;2022-07-05T13:27:39;29.10;28.80
1135;DHT22;556;53.550;10.048;2022-07-05T13:30:07;28.30;29.10
1135;DHT22;556;53.550;10.048;2022-07-05T13:32:34;27.70;29.40
1135;DHT22;556;53.550;10.048;2022-07-05T13:35:02;27.00;29.70
1135;DHT22;556;53.550;10.048;2022-07-05T13:37:30;27.00;30.10
1135;DHT22;556;53.550;10.048;2022-07-05T13:39:58;26.30;30.00
1135;DHT22;556;53.550;10.048;2022-07-05T13:42:25;26.10;30.10
1135;DHT22;556;53.550;10.048;2022-07-05T13:44:52;25.80;30.30
1135;DHT22;556;53.550;10.048;2022-07-05T13:47:20;25.60;30.40
1135;DHT22;556;53.550;10.048;2022-07-05T13:49:48;25.40;30.50
1135;DHT22;556;53.550;10.048;2022-07-05T13:55:04;25.10;31.10
1135;DHT22;556;53.550;10.048;2022-07-05T13:57:31;24.90;31.40
1135;DHT22;556;53.550;10.048;2022-07-05T13:59:58;24.80;31.70
1135;DHT22;556;53.550;10.048;2022-07-05T14:02:26;24.40;32.40
1135;DHT22;556;53.550;10.048;2022-07-05T14:04:53;24.30;32.50
1135;DHT22;556;53.550;10.048;2022-07-05T14:07:20;24.40;32.60
1135;DHT22;556;53.550;10.048;2022-07-05T14:09:49;24.70;32.50
1135;DHT22;556;53.550;10.048;2022-07-05T14:12:16;25.10;32.50
1135;DHT22;556;53.550;10.048;2022-07-05T14:14:43;25.60;32.30
1135;DHT22;556;53.550;10.048;2022-07-05T14:17:12;26.10;32.00
1135;DHT22;556;53.550;10.048;2022-07-05T14:19:39;26.40;31.90
1135;DHT22;556;53.550;10.048;2022-07-05T14:22:08;26.60;31.80
1135;DHT22;556;53.550;10.048;2022-07-05T14:24:35;26.60;32.20
1135;DHT22;556;53.550;10.048;2022-07-05T14:27:05;26.20;32.10
1135;DHT22;556;53.550;10.048;2022-07-05T14:29:35;26.10;32.30
1135;DHT22;556;53.550;10.048;2022-07-05T14:32:02;25.70;32.60
1135;DHT22;556;53.550;10.048;2022-07-05T14:34:30;25.50;32.70
1135;DHT22;556;53.550;10.048;2022-07-05T14:37:00;25.50;33.20
1135;DHT22;556;53.550;10.048;2022-07-05T14:39:28;25.30;33.10
1135;DHT22;556;53.550;10.048;2022-07-05T14:41:55;25.20;33.10
1135;DHT22;556;53.550;10.048;2022-07-05T14:44:24;25.20;33.20
1135;DHT22;556;53.550;10.048;2022-07-05T14:46:51;25.30;33.40
1135;DHT22;556;53.550;10.048;2022-07-05T14:49:18;25.50;33.40
1135;DHT22;556;53.550;10.048;2022-07-05T14:51:45;26.80;33.20
1135;DHT22;556;53.550;10.048;2022-07-05T14:54:12;27.60;32.80
1135;DHT22;556;53.550;10.048;2022-07-05T14:56:39;28.00;33.10
1135;DHT22;556;53.550;10.048;2022-07-05T14:59:06;29.00;32.60
1135;DHT22;556;53.550;10.048;2022-07-05T15:01:35;29.80;32.10
1135;DHT22;556;53.550;10.048;2022-07-05T15:04:02;30.50;31.50
1135;DHT22;556;53.550;10.048;2022-07-05T15:06:29;30.80;31.30
1135;DHT22;556;53.550;10.048;2022-07-05T15:08:56;30.70;31.20
1135;DHT22;556;53.550;10.048;2022-07-05T15:11:23;30.20;30.60
1135;DHT22;556;53.550;10.048;2022-07-05T15:13:51;29.40;31.00
1135;DHT22;556;53.550;10.048;2022-07-05T15:16:18;28.70;31.30
1135;DHT22;556;53.550;10.048;2022-07-05T15:18:46;28.70;31.90
1135;DHT22;556;53.550;10.048;2022-07-05T15:21:14;27.90;31.50
1135;DHT22;556;53.550;10.048;2022-07-05T15:23:41;27.40;32.00
1135;DHT22;556;53.550;10.048;2022-07-05T15:26:08;27.20;32.20
1135;DHT22;556;53.550;10.048;2022-07-05T15:28:35;27.30;32.60
1135;DHT22;556;53.550;10.048;2022-07-05T15:31:02;27.40;31.70
1135;DHT22;556;53.550;10.048;2022-07-05T15:33:30;27.40;32.20
1135;DHT22;556;53.550;10.048;2022-07-05T15:35:58;27.10;32.30
1135;DHT22;556;53.550;10.048;2022-07-05T15:38:26;27.10;31.90
1135;DHT22;556;53.550;10.048;2022-07-05T15:40:53;27.40;31.90
1135;DHT22;556;53.550;10.048;2022-07-05T15:43:22;27.80;32.30
1135;DHT22;556;53.550;10.048;2022-07-05T15:45:51;28.80;32.00
1135;DHT22;556;53.550;10.048;2022-07-05T15:48:19;30.20;30.80
1135;DHT22;556;53.550;10.048;2022-07-05T15:50:46;31.00;30.90
1135;DHT22;556;53.550;10.048;2022-07-05T15:53:15;31.60;30.50
1135;DHT22;556;53.550;10.048;2022-07-05T15:55:42;31.90;29.80
1135;DHT22;556;53.550;10.048;2022-07-05T15:58:09;31.80;29.90
1135;DHT22;556;53.550;10.048;2022-07-05T16:00:36;31.90;30.30
1135;DHT22;556;53.550;10.048;2022-07-05T16:03:04;32.50;30.00
1135;DHT22;556;53.550;10.048;2022-07-05T16:05:31;32.60;29.70
1135;DHT22;556;53.550;10.048;2022-07-05T16:07:58;32.10;29.60
1135;DHT22;556;53.550;10.048;2022-07-05T16:10:26;31.60;29.40
1135;DHT22;556;53.550;10.048;2022-07-05T16:12:53;31.90;29.20
1135;DHT22;556;53.550;10.048;2022-07-05T16:15:21;31.90;29.50
1135;DHT22;556;53.550;10.048;2022-07-05T16:18:05;31.50;29.20
1135;DHT22;556;53.550;10.048;2022-07-05T16:20:32;31.30;29.60
1135;DHT22;556;53.550;10.048;2022-07-05T16:22:59;30.90;29.40
1135;DHT22;556;53.550;10.048;2022-07-05T16:25:29;30.30;29.60
1135;DHT22;556;53.550;10.048;2022-07-05T16:27:57;30.20;29.70
1135;DHT22;556;53.550;10.048;2022-07-05T16:30:24;30.00;29.80
1135;DHT22;556;53.550;10.048;2022-07-05T16:32:52;29.50;30.00
1135;DHT22;556;53.550;10.048;2022-07-05T16:35:19;29.20;30.00
1135;DHT22;556;53.550;10.048;2022-07-05T16:37:46;29.00;30.30
1135;DHT22;556;53.550;10.048;2022-07-05T16:40:13;29.10;30.10